createdAt,value
2019-05-07T00:01:02.930Z,11.00
2019-05-07T00:06:05.158Z,10.87
2019-05-07T00:11:07.232Z,10.80
2019-05-07T00:16:09.267Z,10.77
2019-05-07T00:21:12.627Z,10.73
2019-05-07T00:26:14.998Z,10.72
2019-05-07T00:31:17.077Z,10.74
2019-05-07T00:36:52.498Z,10.80
2019-05-07T00:42:03.002Z,10.86
2019-05-07T00:47:04.788Z,10.89
2019-05-07T00:52:06.843Z,10.96
2019-05-07T00:57:08.911Z,11.01
2019-05-07T01:02:12.799Z,11.03
2019-05-07T01:07:15.019Z,11.09
2019-05-07T01:12:17.098Z,11.13
2019-05-07T01:17:19.128Z,11.21
2019-05-07T01:22:22.243Z,11.24
2019-05-07T01:27:24.589Z,11.19
2019-05-07T01:32:35.868Z,11.23
2019-05-07T01:37:37.970Z,11.26
2019-05-07T01:42:42.167Z,11.26
2019-05-07T01:47:44.003Z,11.24
2019-05-07T01:52:47.853Z,11.25
2019-05-07T01:57:52.129Z,11.22
2019-05-07T02:02:59.756Z,11.25
2019-05-07T02:08:04.425Z,11.24
2019-05-07T02:13:06.507Z,11.25
2019-05-07T02:18:08.666Z,11.23
2019-05-07T02:23:12.754Z,11.19
2019-05-07T02:28:14.836Z,11.21
2019-05-07T02:33:16.934Z,11.21
2019-05-07T02:38:29.889Z,11.21
2019-05-07T02:43:33.732Z,11.23
2019-05-07T02:48:43.358Z,11.23
2019-05-07T02:53:57.447Z,11.25
2019-05-07T02:58:59.518Z,11.25
2019-05-07T03:04:03.631Z,11.25
2019-05-07T03:09:06.155Z,11.23
2019-05-07T03:14:08.429Z,11.23
2019-05-07T03:19:13.322Z,11.27
2019-05-07T03:24:23.052Z,11.28
2019-05-07T03:29:25.743Z,11.27
2019-05-07T03:34:46.424Z,11.28
2019-05-07T03:39:47.643Z,11.28
2019-05-07T03:45:09.349Z,11.26
2019-05-07T03:50:14.637Z,11.23
2019-05-07T03:55:17.083Z,11.23
2019-05-07T04:00:19.160Z,11.25
2019-05-07T04:05:23.131Z,11.26
2019-05-07T04:10:25.272Z,11.28
2019-05-07T04:15:27.346Z,11.29
2019-05-07T04:20:29.408Z,11.32
2019-05-07T04:25:56.875Z,11.33
2019-05-07T04:31:02.835Z,11.36
2019-05-07T04:36:18.688Z,11.38
2019-05-07T04:41:23.590Z,11.41
2019-05-07T04:46:26.042Z,11.42
2019-05-07T04:51:37.785Z,11.47
2019-05-07T04:56:39.849Z,11.53
2019-05-07T05:01:47.670Z,11.54
2019-05-07T05:06:49.817Z,11.62
2019-05-07T05:11:53.103Z,11.68
2019-05-07T05:16:55.442Z,11.77
2019-05-07T05:22:07.647Z,11.80
2019-05-07T05:27:12.099Z,11.82
2019-05-07T05:32:13.753Z,11.95
2019-05-07T05:37:15.875Z,12.12
2019-05-07T05:42:28.281Z,12.17
2019-05-07T05:47:30.401Z,12.17
2019-05-07T05:52:39.411Z,12.27
2019-05-07T05:57:58.424Z,12.34
2019-05-07T06:03:34.329Z,12.30
2019-05-07T06:08:55.371Z,12.36
2019-05-07T06:14:15.623Z,12.28
2019-05-07T06:19:23.234Z,12.15
2019-05-07T06:24:40.053Z,11.97
2019-05-07T06:29:42.681Z,11.91
2019-05-07T06:34:45.147Z,11.76
2019-05-07T06:39:55.514Z,11.70
2019-05-07T06:45:05.606Z,11.67
2019-05-07T06:50:07.692Z,11.56
2019-05-07T06:55:12.072Z,11.52
2019-05-07T07:00:37.034Z,11.49
2019-05-07T07:06:02.747Z,11.45
2019-05-07T07:11:15.384Z,11.44
2019-05-07T07:16:19.553Z,11.45
2019-05-07T07:21:22.054Z,11.54
2019-05-07T07:26:24.148Z,11.60
2019-05-07T07:31:33.465Z,11.60
2019-05-07T07:37:05.450Z,11.56
2019-05-07T07:42:02.927Z,11.66
2019-05-07T07:47:05.012Z,11.76
2019-05-07T07:52:07.068Z,11.79
2019-05-07T07:57:32.423Z,12.09
2019-05-07T08:03:03.057Z,12.40
2019-05-07T08:08:05.241Z,12.72
2019-05-07T08:13:07.280Z,12.74
2019-05-07T08:18:11.843Z,12.78
2019-05-07T08:23:13.447Z,12.97
2019-05-07T08:28:16.850Z,12.79
2019-05-07T08:33:23.582Z,12.66
2019-05-07T08:38:25.613Z,12.68
2019-05-07T08:43:27.671Z,12.90
2019-05-07T08:48:37.884Z,12.97
2019-05-07T08:53:42.191Z,13.39
2019-05-07T08:58:43.894Z,13.77
2019-05-07T09:03:45.922Z,13.96
2019-05-07T09:08:47.995Z,13.93
2019-05-07T09:13:50.075Z,13.96
2019-05-07T09:18:54.221Z,14.21
2019-05-07T09:23:56.265Z,14.46
2019-05-07T09:29:05.167Z,14.65
2019-05-07T09:34:07.270Z,14.84
2019-05-07T09:39:09.423Z,14.64
2019-05-07T09:44:11.977Z,14.52
2019-05-07T09:49:14.231Z,14.59
2019-05-07T09:54:16.309Z,14.82
2019-05-07T09:59:18.398Z,15.28
2019-05-07T10:04:22.405Z,15.57
2019-05-07T10:09:24.600Z,15.66
2019-05-07T10:14:26.698Z,15.67
2019-05-07T10:19:29.276Z,15.76
2019-05-07T10:24:31.625Z,15.68
2019-05-07T10:29:33.706Z,15.57
2019-05-07T10:34:35.813Z,15.58
2019-05-07T10:39:37.843Z,15.64
2019-05-07T10:44:46.252Z,15.63
2019-05-07T10:49:55.937Z,15.68
2019-05-07T10:55:00.014Z,15.71
2019-05-07T11:00:03.224Z,15.81
2019-05-07T11:05:05.842Z,15.94
2019-05-07T11:10:12.193Z,15.99
2019-05-07T11:15:15.031Z,15.71
2019-05-07T11:20:17.817Z,15.59
2019-05-07T11:25:19.934Z,15.98
2019-05-07T11:30:22.909Z,16.27
2019-05-07T11:35:25.140Z,16.18
2019-05-07T11:40:27.201Z,16.29
2019-05-07T11:45:35.024Z,16.35
2019-05-07T11:51:00.426Z,16.37
2019-05-07T11:55:53.777Z,16.57
2019-05-07T12:01:03.960Z,16.78
2019-05-07T12:06:06.382Z,16.89
2019-05-07T12:11:08.472Z,16.76
2019-05-07T12:16:13.953Z,16.90
2019-05-07T12:21:20.721Z,17.06
2019-05-07T12:26:18.540Z,16.89
2019-05-07T12:31:39.109Z,16.59
2019-05-07T12:36:41.534Z,16.41
2019-05-07T12:41:43.577Z,16.36
2019-05-07T12:46:45.948Z,16.32
2019-05-07T12:52:16.291Z,16.25
2019-05-07T12:57:18.353Z,16.28
2019-05-07T13:02:42.063Z,16.15
2019-05-07T13:07:52.979Z,16.15
2019-05-07T13:12:55.067Z,16.17
2019-05-07T13:17:57.176Z,16.09
2019-05-07T13:22:59.633Z,16.27
2019-05-07T13:28:02.619Z,16.35
2019-05-07T13:33:05.130Z,16.48
2019-05-07T13:38:25.740Z,16.64
2019-05-07T13:43:32.449Z,16.72
2019-05-07T13:48:35.793Z,16.70
2019-05-07T13:53:37.811Z,16.54
2019-05-07T13:58:39.869Z,16.45
2019-05-07T14:03:42.025Z,16.20
2019-05-07T14:08:44.525Z,16.33
2019-05-07T14:13:47.092Z,16.35
2019-05-07T14:18:49.335Z,16.37
2019-05-07T14:23:52.129Z,16.26
2019-05-07T14:28:54.424Z,16.29
2019-05-07T14:34:05.133Z,16.45
2019-05-07T14:39:07.996Z,16.50
2019-05-07T14:44:13.023Z,16.57
2019-05-07T14:49:15.167Z,16.56
2019-05-07T14:54:18.364Z,16.62
2019-05-07T14:59:20.569Z,16.63
2019-05-07T15:04:22.638Z,16.60
2019-05-07T15:09:24.712Z,16.57
2019-05-07T15:14:26.847Z,16.33
2019-05-07T15:19:28.939Z,16.18
2019-05-07T15:24:32.693Z,15.97
2019-05-07T15:29:34.904Z,15.91
2019-05-07T15:34:37.182Z,15.84
2019-05-07T15:39:39.439Z,15.78
2019-05-07T15:44:43.175Z,15.66
2019-05-07T15:49:45.560Z,15.44
2019-05-07T15:54:47.618Z,15.34
2019-05-07T15:59:52.410Z,15.30
2019-05-07T16:04:54.664Z,15.30
2019-05-07T16:09:58.544Z,15.27
2019-05-07T16:15:02.991Z,15.32
2019-05-07T16:20:05.241Z,15.40
2019-05-07T16:25:07.583Z,15.47
2019-05-07T16:30:13.988Z,15.46
2019-05-07T16:35:16.261Z,15.50
2019-05-07T16:40:19.847Z,15.44
2019-05-07T16:45:22.275Z,15.42
2019-05-07T16:50:24.304Z,15.41
2019-05-07T16:55:36.613Z,15.42
2019-05-07T17:00:52.285Z,15.49
2019-05-07T17:05:54.502Z,15.42
2019-05-07T17:10:56.581Z,15.44
2019-05-07T17:16:00.151Z,15.46
2019-05-07T17:21:02.397Z,15.48
2019-05-07T17:26:05.048Z,15.48
2019-05-07T17:31:07.306Z,15.44
2019-05-07T17:36:12.035Z,15.38
2019-05-07T17:41:22.219Z,15.41
2019-05-07T17:46:23.056Z,15.40
2019-05-07T17:51:44.787Z,15.19
2019-05-07T17:56:46.914Z,15.27
2019-05-07T18:02:01.932Z,15.22
2019-05-07T18:07:07.080Z,15.06
2019-05-07T18:12:09.302Z,15.06
2019-05-07T18:17:33.505Z,14.96
2019-05-07T18:22:35.587Z,14.85
2019-05-07T18:27:42.061Z,14.77
2019-05-07T18:32:49.343Z,14.69
2019-05-07T18:37:53.620Z,14.72
2019-05-07T18:42:55.664Z,14.52
2019-05-07T18:47:57.786Z,14.59
2019-05-07T18:53:02.854Z,14.62
2019-05-07T18:58:05.161Z,14.43
2019-05-07T19:03:07.404Z,14.37
2019-05-07T19:08:09.471Z,14.37
2019-05-07T19:13:13.664Z,14.29
2019-05-07T19:18:17.654Z,14.33
2019-05-07T19:23:22.106Z,14.39
2019-05-07T19:28:25.330Z,14.19
2019-05-07T19:33:36.864Z,14.21
2019-05-07T19:38:44.167Z,14.20
2019-05-07T19:43:48.055Z,14.04
2019-05-07T19:48:52.067Z,14.05
2019-05-07T19:53:54.083Z,14.02
2019-05-07T19:58:56.153Z,13.96
2019-05-07T20:03:58.257Z,13.93
2019-05-07T20:09:11.467Z,13.88
2019-05-07T20:14:04.649Z,13.86
2019-05-07T20:19:06.801Z,13.79
2019-05-07T20:24:08.893Z,13.77
2019-05-07T20:29:12.314Z,13.73
2019-05-07T20:34:14.793Z,13.68
2019-05-07T20:39:16.848Z,13.69
2019-05-07T20:44:18.953Z,13.65
2019-05-07T20:49:22.499Z,13.57
2019-05-07T20:54:47.387Z,13.44
2019-05-07T20:59:49.569Z,13.35
2019-05-07T21:04:51.966Z,13.42
2019-05-07T21:09:54.095Z,13.23
2019-05-07T21:14:56.331Z,13.23
2019-05-07T21:19:58.503Z,13.21
2019-05-07T21:25:02.662Z,13.13
2019-05-07T21:30:05.267Z,13.10
2019-05-07T21:35:07.367Z,13.00
2019-05-07T21:40:09.494Z,12.90
2019-05-07T21:45:11.550Z,12.89
2019-05-07T21:50:13.729Z,12.89
2019-05-07T21:55:35.433Z,12.88
2019-05-07T22:00:48.054Z,12.88
2019-05-07T22:05:51.743Z,12.89
2019-05-07T22:10:54.061Z,12.98
2019-05-07T22:15:56.119Z,13.03
2019-05-07T22:20:59.481Z,13.09
2019-05-07T22:26:18.448Z,13.05
2019-05-07T22:31:20.185Z,13.07
2019-05-07T22:36:23.566Z,13.07
2019-05-07T22:41:25.964Z,13.15
2019-05-07T22:46:28.057Z,13.01
2019-05-07T22:51:30.170Z,12.98
2019-05-07T22:56:54.657Z,12.97
2019-05-07T23:01:56.725Z,12.98
2019-05-07T23:06:58.798Z,12.94
2019-05-07T23:12:02.211Z,12.95
2019-05-07T23:17:04.486Z,12.90
2019-05-07T23:22:06.531Z,12.85
2019-05-07T23:27:08.636Z,12.77
2019-05-07T23:32:12.659Z,12.66
2019-05-07T23:37:14.961Z,12.68
2019-05-07T23:42:21.309Z,12.63
2019-05-07T23:47:23.398Z,12.53
2019-05-07T23:52:25.566Z,12.56
2019-05-07T23:57:27.663Z,12.43
